Aviation Digital Data Service (ADDS)

Output produced by METARs form (1354 UTC 13 December 2019)
found at http://www.aviationweather.gov/metar/data/
 
Forecast for: KTUL (TULSA , OK, US)
Text: KTUL 131124Z 1312/1412 11004KT P6SM BKN120
Forecast period: 1200 to 1600 UTC 13 December 2019
Forecast type: FROM: standard forecast or significant change
Winds: from the ESE (110 degrees) at 5 MPH (4 knots; 2.1 m/s)
Visibility: 6 or more miles 10+ km)
Ceiling: 12000 feet AGL
Clouds: broken clouds at 12000 feet AGL
Weather: no significant weather forecast for this period
Text: FM131600 19008KT P6SM SCT250
Forecast period: 1600 UTC 13 December 2019 to 1000 UTC 14 December 2019
Forecast type: FROM: standard forecast or significant change
Winds: from the S (190 degrees) at 9 MPH (8 knots; 4.1 m/s)
Visibility: 6 or more miles 10+ km)
Ceiling: at least 12,000 feet AGL
Clouds: scattered clouds at 25000 feet AGL
Weather: no significant weather forecast for this period
Text: FM141000 31010KT P6SM BKN250
Forecast period: 1000 to 1200 UTC 14 December 2019
Forecast type: FROM: standard forecast or significant change
Winds: from the NW (310 degrees) at 12 MPH (10 knots; 5.1 m/s)
Visibility: 6 or more miles 10+ km)
Ceiling: 25000 feet AGL
Clouds: broken clouds at 25000 feet AGL
Weather: no significant weather forecast for this period